Time,TemperatureF,DewpointF,PressureIn,WindDirection,WindDirectionDegrees,WindSpeedMPH,WindSpeedGustMPH,Humidity,HourlyPrecipIn,Conditions,Clouds,dailyrainin,SoftwareType,DateUTC
2013-01-04 00:02:00,26.2,17.1,30.05,West,269,2.0,7.0,68,0.00,,,0.00,meteohub,2013-01-04 05:02:00,
2013-01-04 00:03:00,26.1,16.9,30.05,WSW,248,0.0,7.0,68,0.00,,,0.00,meteohub,2013-01-04 05:03:00,
2013-01-04 00:08:00,26.1,16.9,30.05,West,259,1.0,7.0,68,0.00,,,0.00,meteohub,2013-01-04 05:08:00,
2013-01-04 00:13:00,26.1,16.9,30.05,West,279,1.0,7.0,68,0.00,,,0.00,meteohub,2013-01-04 05:13:00,
2013-01-04 00:18:00,26.1,16.9,30.04,West,273,0.0,7.0,68,0.00,,,0.00,meteohub,2013-01-04 05:18:00,
2013-01-04 00:23:00,26.1,16.9,30.04,West,261,2.0,7.0,68,0.00,,,0.00,meteohub,2013-01-04 05:23:00,
2013-01-04 00:28:00,25.9,16.7,30.04,WSW,244,1.0,7.0,68,0.00,,,0.00,meteohub,2013-01-04 05:28:00,
2013-01-04 00:33:00,25.9,17.1,30.04,WSW,246,2.0,7.0,69,0.00,,,0.00,meteohub,2013-01-04 05:33:00,
2013-01-04 00:38:00,25.7,16.9,30.04,WSW,245,1.0,5.0,69,0.00,,,0.00,meteohub,2013-01-04 05:38:00,
2013-01-04 00:43:00,25.5,16.7,30.04,West,264,0.0,5.0,69,0.00,,,0.00,meteohub,2013-01-04 05:43:00,
2013-01-04 00:48:00,25.5,17.1,30.04,WSW,239,0.0,5.0,70,0.00,,,0.00,meteohub,2013-01-04 05:48:00,
2013-01-04 00:53:00,25.5,17.1,30.04,WSW,252,2.0,5.0,70,0.00,,,0.00,meteohub,2013-01-04 05:53:00,
2013-01-04 00:58:00,25.7,17.2,30.03,WNW,288,0.0,5.0,70,0.00,,,0.00,meteohub,2013-01-04 05:58:00,
2013-01-04 01:03:00,25.9,17.8,30.03,SW,231,0.0,5.0,71,0.00,,,0.00,meteohub,2013-01-04 06:03:00,
2013-01-04 01:08:00,26.1,17.6,30.03,WSW,240,1.0,5.0,70,0.00,,,0.00,meteohub,2013-01-04 06:08:00,
2013-01-04 01:13:00,26.2,17.8,30.03,WSW,239,0.0,5.0,70,0.00,,,0.00,meteohub,2013-01-04 06:13:00,
2013-01-04 01:18:00,26.4,18.0,30.03,WSW,254,1.0,5.0,70,0.00,,,0.00,meteohub,2013-01-04 06:18:00,
2013-01-04 01:23:00,26.6,18.1,30.03,West,259,1.0,6.0,70,0.00,,,0.00,meteohub,2013-01-04 06:23:00,
2013-01-04 01:29:00,26.8,18.3,30.03,SW,228,6.0,6.0,70,0.00,,,0.00,meteohub,2013-01-04 06:29:00,
2013-01-04 01:34:00,27.0,18.5,30.03,WSW,240,0.0,6.0,70,0.00,,,0.00,meteohub,2013-01-04 06:34:00,
2013-01-04 01:39:00,27.1,18.7,30.03,SW,228,2.0,7.0,70,0.00,,,0.00,meteohub,2013-01-04 06:39:00,
2013-01-04 01:44:00,27.1,18.7,30.03,NW,317,1.0,7.0,70,0.00,,,0.00,meteohub,2013-01-04 06:44:00,
2013-01-04 01:49:00,27.1,18.7,30.03,WSW,237,2.0,7.0,70,0.00,,,0.00,meteohub,2013-01-04 06:49:00,
2013-01-04 01:54:00,27.1,18.7,30.03,West,268,4.0,12.0,70,0.00,,,0.00,meteohub,2013-01-04 06:54:00,
2013-01-04 01:59:00,27.1,18.3,30.03,West,275,2.0,12.0,69,0.00,,,0.00,meteohub,2013-01-04 06:59:00,
2013-01-04 02:04:00,27.1,18.7,30.03,West,266,0.0,7.0,70,0.00,,,0.00,meteohub,2013-01-04 07:04:00,
2013-01-04 02:09:00,27.0,18.5,30.03,WSW,246,3.0,7.0,70,0.00,,,0.00,meteohub,2013-01-04 07:09:00,
2013-01-04 02:14:00,26.8,18.3,30.03,SW,229,6.0,7.0,70,0.00,,,0.00,meteohub,2013-01-04 07:14:00,
2013-01-04 02:19:00,26.6,18.5,30.03,WSW,249,2.0,7.0,71,0.00,,,0.00,meteohub,2013-01-04 07:19:00,
2013-01-04 02:24:00,26.4,18.3,30.03,West,267,0.0,7.0,71,0.00,,,0.00,meteohub,2013-01-04 07:24:00,
2013-01-04 02:29:00,26.6,18.5,30.03,West,259,1.0,7.0,71,0.00,,,0.00,meteohub,2013-01-04 07:29:00,
2013-01-04 02:34:00,26.8,19.0,30.03,West,264,6.0,7.0,72,0.00,,,0.00,meteohub,2013-01-04 07:34:00,
2013-01-04 02:39:00,27.0,19.2,30.03,West,275,0.0,8.0,72,0.00,,,0.00,meteohub,2013-01-04 07:39:00,
2013-01-04 02:44:00,27.0,19.2,30.03,WSW,257,0.0,8.0,72,0.00,,,0.00,meteohub,2013-01-04 07:44:00,
2013-01-04 02:49:00,27.1,19.4,30.03,WSW,249,2.0,8.0,72,0.00,,,0.00,meteohub,2013-01-04 07:49:00,
2013-01-04 02:54:00,27.3,19.6,30.03,WSW,251,2.0,8.0,72,0.00,,,0.00,meteohub,2013-01-04 07:54:00,
2013-01-04 02:59:00,27.5,19.6,30.03,West,259,3.0,8.0,72,0.00,,,0.00,meteohub,2013-01-04 07:59:00,
2013-01-04 03:04:00,27.7,19.8,30.03,WSW,254,0.0,8.0,72,0.00,,,0.00,meteohub,2013-01-04 08:04:00,
2013-01-04 03:09:00,27.7,19.8,30.03,WSW,248,0.0,8.0,72,0.00,,,0.00,meteohub,2013-01-04 08:09:00,
2013-01-04 03:14:00,27.7,19.8,30.03,WSW,257,1.0,8.0,72,0.00,,,0.00,meteohub,2013-01-04 08:14:00,
2013-01-04 03:19:00,27.5,19.6,30.02,WSW,241,1.0,4.0,72,0.00,,,0.00,meteohub,2013-01-04 08:19:00,
2013-01-04 03:24:00,27.3,19.6,30.02,SW,234,6.0,6.0,72,0.00,,,0.00,meteohub,2013-01-04 08:24:00,
2013-01-04 03:29:00,27.3,19.6,30.02,West,267,1.0,6.0,72,0.00,,,0.00,meteohub,2013-01-04 08:29:00,
2013-01-04 03:34:00,27.5,19.6,30.03,WSW,247,1.0,6.0,72,0.00,,,0.00,meteohub,2013-01-04 08:34:00,
2013-01-04 03:39:00,27.7,19.8,30.02,WSW,254,0.0,6.0,72,0.00,,,0.00,meteohub,2013-01-04 08:39:00,
2013-01-04 03:44:00,27.9,19.9,30.02,West,261,1.0,5.0,72,0.00,,,0.00,meteohub,2013-01-04 08:44:00,
2013-01-04 03:49:00,27.9,19.9,30.02,West,272,0.0,6.0,72,0.00,,,0.00,meteohub,2013-01-04 08:49:00,
2013-01-04 03:54:00,27.7,19.8,30.02,WSW,250,2.0,6.0,72,0.00,,,0.00,meteohub,2013-01-04 08:54:00,
2013-01-04 03:59:00,27.9,19.9,30.02,WSW,247,2.0,6.0,72,0.00,,,0.00,meteohub,2013-01-04 08:59:00,
2013-01-04 04:04:00,27.9,19.9,30.02,West,261,1.0,5.0,72,0.00,,,0.00,meteohub,2013-01-04 09:04:00,
2013-01-04 04:09:00,27.7,19.8,30.02,SW,234,0.0,4.0,72,0.00,,,0.00,meteohub,2013-01-04 09:09:00,
2013-01-04 04:14:00,27.7,20.1,30.02,WSW,250,1.0,6.0,73,0.00,,,0.00,meteohub,2013-01-04 09:14:00,
2013-01-04 04:19:00,27.7,20.1,30.02,WSW,242,1.0,6.0,73,0.00,,,0.00,meteohub,2013-01-04 09:19:00,
2013-01-04 04:24:00,27.7,20.1,30.02,WSW,240,0.0,6.0,73,0.00,,,0.00,meteohub,2013-01-04 09:24:00,
2013-01-04 04:29:00,27.5,19.9,30.02,WSW,240,1.0,5.0,73,0.00,,,0.00,meteohub,2013-01-04 09:29:00,
2013-01-04 04:34:00,27.3,19.8,30.02,WSW,240,0.0,4.0,73,0.00,,,0.00,meteohub,2013-01-04 09:34:00,
2013-01-04 04:39:00,27.3,20.1,30.02,WSW,240,0.0,3.0,74,0.00,,,0.00,meteohub,2013-01-04 09:39:00,
2013-01-04 04:44:00,27.3,20.1,30.03,WSW,240,0.0,3.0,74,0.00,,,0.00,meteohub,2013-01-04 09:44:00,
2013-01-04 04:49:00,27.3,20.1,30.03,SSE,163,2.0,3.0,74,0.00,,,0.00,meteohub,2013-01-04 09:49:00,
2013-01-04 04:54:00,27.5,20.3,30.03,SW,232,0.0,3.0,74,0.00,,,0.00,meteohub,2013-01-04 09:54:00,
2013-01-04 04:59:00,27.5,20.3,30.02,SW,232,0.0,3.0,74,0.00,,,0.00,meteohub,2013-01-04 09:59:00,
2013-01-04 05:04:00,27.7,20.5,30.02,WSW,242,0.0,3.0,74,0.00,,,0.00,meteohub,2013-01-04 10:04:00,
2013-01-04 05:09:00,27.7,20.5,30.03,WSW,251,0.0,5.0,74,0.00,,,0.00,meteohub,2013-01-04 10:09:00,
2013-01-04 05:14:00,27.5,20.3,30.02,SW,228,3.0,5.0,74,0.00,,,0.00,meteohub,2013-01-04 10:14:00,
2013-01-04 05:19:00,27.7,20.5,30.03,WSW,238,0.0,5.0,74,0.00,,,0.00,meteohub,2013-01-04 10:19:00,
2013-01-04 05:24:00,27.7,20.5,30.03,SW,234,1.0,5.0,74,0.00,,,0.00,meteohub,2013-01-04 10:24:00,
2013-01-04 05:29:00,27.5,20.3,30.03,WSW,245,1.0,5.0,74,0.00,,,0.00,meteohub,2013-01-04 10:29:00,
2013-01-04 05:34:00,27.5,20.7,30.03,WSW,250,3.0,5.0,75,0.00,,,0.00,meteohub,2013-01-04 10:34:00,
2013-01-04 05:39:00,27.5,20.7,30.03,WSW,239,0.0,5.0,75,0.00,,,0.00,meteohub,2013-01-04 10:39:00,
2013-01-04 05:45:00,27.5,20.7,30.03,WSW,248,1.0,4.0,75,0.00,,,0.00,meteohub,2013-01-04 10:45:00,
2013-01-04 05:50:00,27.7,20.8,30.03,WSW,252,1.0,6.0,75,0.00,,,0.00,meteohub,2013-01-04 10:50:00,
2013-01-04 05:55:00,27.7,20.8,30.03,SW,234,1.0,6.0,75,0.00,,,0.00,meteohub,2013-01-04 10:55:00,
2013-01-04 06:00:00,27.7,20.8,30.03,WSW,240,0.0,6.0,75,0.00,,,0.00,meteohub,2013-01-04 11:00:00,
2013-01-04 06:05:00,27.7,20.8,30.02,WSW,240,1.0,5.0,75,0.00,,,0.00,meteohub,2013-01-04 11:05:00,
2013-01-04 06:10:00,27.7,20.8,30.02,WSW,240,0.0,4.0,75,0.00,,,0.00,meteohub,2013-01-04 11:10:00,
2013-01-04 06:15:00,27.3,20.5,30.02,WSW,240,0.0,4.0,75,0.00,,,0.00,meteohub,2013-01-04 11:15:00,
2013-01-04 06:20:00,27.3,20.8,30.02,WSW,240,0.0,3.0,76,0.00,,,0.00,meteohub,2013-01-04 11:20:00,
2013-01-04 06:25:00,27.1,20.7,30.02,WSW,240,2.0,3.0,76,0.00,,,0.00,meteohub,2013-01-04 11:25:00,
2013-01-04 06:30:00,27.1,20.7,30.02,West,271,0.0,4.0,76,0.00,,,0.00,meteohub,2013-01-04 11:30:00,
2013-01-04 06:35:00,27.1,20.8,30.02,SW,228,4.0,4.0,77,0.00,,,0.00,meteohub,2013-01-04 11:35:00,
2013-01-04 06:40:00,27.3,21.0,30.03,SW,229,2.0,6.0,77,0.00,,,0.00,meteohub,2013-01-04 11:40:00,
2013-01-04 06:45:00,27.3,21.0,30.03,West,279,0.0,6.0,77,0.00,,,0.00,meteohub,2013-01-04 11:45:00,
2013-01-04 06:50:00,27.3,21.0,30.03,West,267,0.0,6.0,77,0.00,,,0.00,meteohub,2013-01-04 11:50:00,
2013-01-04 06:55:00,27.3,21.0,30.03,West,262,3.0,4.0,77,0.00,,,0.00,meteohub,2013-01-04 11:55:00,
2013-01-04 07:00:00,27.5,21.2,30.03,SW,232,0.0,5.0,77,0.00,,,0.00,meteohub,2013-01-04 12:00:00,
2013-01-04 07:05:00,27.7,21.4,30.03,WNW,302,0.0,7.0,77,0.00,,,0.00,meteohub,2013-01-04 12:05:00,
2013-01-04 07:10:00,27.7,21.4,30.03,West,275,0.0,7.0,77,0.00,,,0.00,meteohub,2013-01-04 12:10:00,
2013-01-04 07:15:00,27.7,21.4,30.03,WSW,246,1.0,7.0,77,0.00,,,0.00,meteohub,2013-01-04 12:15:00,
2013-01-04 07:20:00,27.7,21.4,30.04,WSW,246,3.0,6.0,77,0.00,,,0.00,meteohub,2013-01-04 12:20:00,
2013-01-04 07:25:00,27.9,21.6,30.04,West,260,1.0,6.0,77,0.00,,,0.00,meteohub,2013-01-04 12:25:00,
2013-01-04 07:30:00,27.9,21.6,30.04,South,191,4.0,4.0,77,0.00,,,0.00,meteohub,2013-01-04 12:30:00,
2013-01-04 07:35:00,27.9,21.6,30.04,West,261,1.0,5.0,77,0.00,,,0.00,meteohub,2013-01-04 12:35:00,
2013-01-04 07:40:00,28.0,21.7,30.04,West,271,0.0,6.0,77,0.00,,,0.00,meteohub,2013-01-04 12:40:00,
2013-01-04 07:45:00,28.0,21.7,30.04,West,261,0.0,6.0,77,0.00,,,0.00,meteohub,2013-01-04 12:45:00,
2013-01-04 07:50:00,28.0,21.7,30.04,WSW,240,2.0,4.0,77,0.00,,,0.00,meteohub,2013-01-04 12:50:00,
2013-01-04 07:55:00,28.2,21.9,30.04,West,281,0.0,5.0,77,0.00,,,0.00,meteohub,2013-01-04 12:55:00,
2013-01-04 08:00:00,28.4,22.1,30.04,West,259,4.0,5.0,77,0.00,,,0.00,meteohub,2013-01-04 13:00:00,
2013-01-04 08:05:00,28.8,22.5,30.05,WSW,255,1.0,7.0,77,0.00,,,0.00,meteohub,2013-01-04 13:05:00,
2013-01-04 08:10:00,28.9,22.3,30.04,WSW,253,0.0,7.0,76,0.00,,,0.00,meteohub,2013-01-04 13:10:00,
2013-01-04 08:15:00,28.9,22.3,30.05,WSW,246,2.0,7.0,76,0.00,,,0.00,meteohub,2013-01-04 13:15:00,
2013-01-04 08:20:00,29.1,22.5,30.05,SW,232,0.0,5.0,76,0.00,,,0.00,meteohub,2013-01-04 13:20:00,
2013-01-04 08:25:00,29.3,22.6,30.05,SW,232,1.0,6.0,76,0.00,,,0.00,meteohub,2013-01-04 13:25:00,
2013-01-04 08:30:00,29.5,22.5,30.05,WSW,252,1.0,6.0,75,0.00,,,0.00,meteohub,2013-01-04 13:30:00,
2013-01-04 08:36:00,29.7,22.6,30.05,WSW,247,3.0,6.0,75,0.00,,,0.00,meteohub,2013-01-04 13:36:00,
2013-01-04 08:41:00,29.8,22.8,30.05,SW,235,1.0,5.0,75,0.00,,,0.00,meteohub,2013-01-04 13:41:00,
2013-01-04 08:46:00,30.2,23.2,30.04,SSW,207,0.0,5.0,75,0.00,,,0.00,meteohub,2013-01-04 13:46:00,
2013-01-04 08:51:00,30.6,23.2,30.04,WSW,244,2.0,6.0,74,0.00,,,0.00,meteohub,2013-01-04 13:51:00,
2013-01-04 08:56:00,30.7,23.4,30.05,WSW,248,0.0,6.0,74,0.00,,,0.00,meteohub,2013-01-04 13:56:00,
2013-01-04 09:01:00,30.7,23.2,30.05,South,184,0.0,6.0,73,0.00,,,0.00,meteohub,2013-01-04 14:01:00,
2013-01-04 09:06:00,30.9,23.4,30.05,South,184,1.0,5.0,73,0.00,,,0.00,meteohub,2013-01-04 14:06:00,
2013-01-04 09:11:00,30.9,23.4,30.04,SW,222,0.0,3.0,73,0.00,,,0.00,meteohub,2013-01-04 14:11:00,
2013-01-04 09:16:00,30.9,23.4,30.04,WSW,243,0.0,3.0,73,0.00,,,0.00,meteohub,2013-01-04 14:16:00,
2013-01-04 09:21:00,30.9,23.4,30.04,SW,234,0.0,3.0,73,0.00,,,0.00,meteohub,2013-01-04 14:21:00,
2013-01-04 09:26:00,30.9,23.4,30.04,SW,222,1.0,4.0,73,0.00,,,0.00,meteohub,2013-01-04 14:26:00,
2013-01-04 09:31:00,31.1,23.5,30.04,South,180,0.0,4.0,73,0.00,,,0.00,meteohub,2013-01-04 14:31:00,
2013-01-04 09:36:00,31.3,23.9,30.04,WSW,245,3.0,5.0,74,0.00,,,0.00,meteohub,2013-01-04 14:36:00,
2013-01-04 09:41:00,31.5,23.9,30.04,SSE,153,1.0,5.0,73,0.00,,,0.00,meteohub,2013-01-04 14:41:00,
2013-01-04 09:46:00,31.5,23.9,30.03,SSW,201,1.0,5.0,73,0.00,,,0.00,meteohub,2013-01-04 14:46:00,
2013-01-04 09:51:00,31.8,24.1,30.04,SW,217,0.0,4.0,73,0.00,,,0.00,meteohub,2013-01-04 14:51:00,
2013-01-04 09:56:00,32.4,24.3,30.03,South,171,1.0,4.0,72,0.00,,,0.00,meteohub,2013-01-04 14:56:00,
2013-01-04 10:01:00,32.7,24.4,30.04,SE,144,0.0,3.0,71,0.00,,,0.00,meteohub,2013-01-04 15:01:00,
2013-01-04 10:06:00,33.4,25.0,30.03,South,179,0.0,3.0,71,0.00,,,0.00,meteohub,2013-01-04 15:06:00,
2013-01-04 10:11:00,34.2,25.3,30.03,SSE,153,1.0,5.0,70,0.00,,,0.00,meteohub,2013-01-04 15:11:00,
2013-01-04 10:16:00,35.1,25.5,30.03,South,191,1.0,5.0,68,0.00,,,0.00,meteohub,2013-01-04 15:16:00,
2013-01-04 10:21:00,35.6,26.1,30.02,SW,221,0.0,3.0,68,0.00,,,0.00,meteohub,2013-01-04 15:21:00,
2013-01-04 10:26:00,36.0,25.7,30.02,WSW,246,0.0,5.0,66,0.00,,,0.00,meteohub,2013-01-04 15:26:00,
2013-01-04 10:31:00,36.1,25.9,30.02,WNW,288,0.0,5.0,66,0.00,,,0.00,meteohub,2013-01-04 15:31:00,
2013-01-04 10:36:00,36.0,25.3,30.01,West,279,0.0,6.0,65,0.00,,,0.00,meteohub,2013-01-04 15:36:00,
2013-01-04 10:41:00,35.8,25.5,30.01,SW,224,1.0,8.0,66,0.00,,,0.00,meteohub,2013-01-04 15:41:00,
2013-01-04 10:46:00,36.1,25.9,30.01,WSW,244,2.0,8.0,66,0.00,,,0.00,meteohub,2013-01-04 15:46:00,
2013-01-04 10:51:00,36.5,25.9,30.01,WSW,239,3.0,8.0,65,0.00,,,0.00,meteohub,2013-01-04 15:51:00,
2013-01-04 10:56:00,36.5,25.9,30.00,SW,215,3.0,10.0,65,0.00,,,0.00,meteohub,2013-01-04 15:56:00,
2013-01-04 11:01:00,36.7,26.1,30.00,WSW,238,0.0,10.0,65,0.00,,,0.00,meteohub,2013-01-04 16:01:00,
2013-01-04 11:06:00,37.0,26.1,30.00,West,274,2.0,10.0,64,0.00,,,0.00,meteohub,2013-01-04 16:06:00,
2013-01-04 11:11:00,36.9,25.9,30.00,SW,224,6.0,9.0,64,0.00,,,0.00,meteohub,2013-01-04 16:11:00,
2013-01-04 11:16:00,37.0,26.1,29.99,WNW,282,2.0,11.0,64,0.00,,,0.00,meteohub,2013-01-04 16:16:00,
2013-01-04 11:21:00,36.9,25.9,29.99,SW,227,2.0,11.0,64,0.00,,,0.00,meteohub,2013-01-04 16:21:00,
2013-01-04 11:26:00,36.7,25.7,29.99,SW,227,2.0,9.0,64,0.00,,,0.00,meteohub,2013-01-04 16:26:00,
2013-01-04 11:31:00,36.7,25.7,29.99,WSW,240,1.0,9.0,64,0.00,,,0.00,meteohub,2013-01-04 16:31:00,
2013-01-04 11:36:00,36.7,26.1,29.98,West,269,3.0,7.0,65,0.00,,,0.00,meteohub,2013-01-04 16:36:00,
2013-01-04 11:41:00,36.3,25.0,29.98,WSW,252,7.0,7.0,63,0.00,,,0.00,meteohub,2013-01-04 16:41:00,
2013-01-04 11:46:00,36.1,25.2,29.98,West,265,3.0,10.0,64,0.00,,,0.00,meteohub,2013-01-04 16:46:00,
2013-01-04 11:51:00,36.1,25.2,29.97,West,273,2.0,10.0,64,0.00,,,0.00,meteohub,2013-01-04 16:51:00,
2013-01-04 11:56:00,36.1,24.8,29.97,West,275,2.0,10.0,63,0.00,,,0.00,meteohub,2013-01-04 16:56:00,
2013-01-04 12:01:00,36.5,25.5,29.97,West,267,2.0,8.0,64,0.00,,,0.00,meteohub,2013-01-04 17:01:00,
2013-01-04 12:06:00,36.7,25.3,29.96,WNW,291,3.0,11.0,63,0.00,,,0.00,meteohub,2013-01-04 17:06:00,
2013-01-04 12:11:00,36.9,25.5,29.96,SW,224,6.0,11.0,63,0.00,,,0.00,meteohub,2013-01-04 17:11:00,
2013-01-04 12:16:00,37.0,25.2,29.95,West,264,3.0,11.0,62,0.00,,,0.00,meteohub,2013-01-04 17:16:00,
2013-01-04 12:21:00,36.9,25.0,29.95,West,272,3.0,10.0,62,0.00,,,0.00,meteohub,2013-01-04 17:21:00,
2013-01-04 12:26:00,36.9,24.6,29.94,WNW,294,1.0,11.0,61,0.00,,,0.00,meteohub,2013-01-04 17:26:00,
2013-01-04 12:31:00,36.7,24.4,29.94,West,267,10.0,11.0,61,0.00,,,0.00,meteohub,2013-01-04 17:31:00,
2013-01-04 12:36:00,36.3,24.6,29.94,West,261,4.0,14.0,62,0.00,,,0.00,meteohub,2013-01-04 17:36:00,
2013-01-04 12:41:00,36.3,25.0,29.94,West,267,2.0,14.0,63,0.00,,,0.00,meteohub,2013-01-04 17:41:00,
2013-01-04 12:46:00,36.3,24.6,29.93,WNW,282,2.0,14.0,62,0.00,,,0.00,meteohub,2013-01-04 17:46:00,
2013-01-04 12:51:00,36.5,24.8,29.93,West,260,7.0,14.0,62,0.00,,,0.00,meteohub,2013-01-04 17:51:00,
2013-01-04 12:56:00,36.3,24.6,29.93,SW,236,4.0,14.0,62,0.00,,,0.00,meteohub,2013-01-04 17:56:00,
2013-01-04 13:01:00,36.5,24.8,29.93,West,281,2.0,14.0,62,0.00,,,0.00,meteohub,2013-01-04 18:01:00,
2013-01-04 13:06:00,36.3,24.6,29.92,SW,236,3.0,10.0,62,0.00,,,0.00,meteohub,2013-01-04 18:06:00,
2013-01-04 13:11:00,36.5,24.8,29.91,South,190,8.0,18.0,62,0.00,,,0.00,meteohub,2013-01-04 18:11:00,
2013-01-04 13:16:00,36.5,24.8,29.91,West,259,2.0,18.0,62,0.00,,,0.00,meteohub,2013-01-04 18:16:00,
2013-01-04 13:21:00,36.7,24.4,29.91,WSW,254,2.0,18.0,61,0.00,,,0.00,meteohub,2013-01-04 18:21:00,
2013-01-04 13:27:00,36.9,24.6,29.91,West,263,5.0,12.0,61,0.00,,,0.00,meteohub,2013-01-04 18:27:00,
2013-01-04 13:32:00,36.9,24.6,29.91,West,271,2.0,11.0,61,0.00,,,0.00,meteohub,2013-01-04 18:32:00,
2013-01-04 13:37:00,36.9,25.0,29.91,SW,229,11.0,11.0,62,0.00,,,0.00,meteohub,2013-01-04 18:37:00,
2013-01-04 13:42:00,36.9,24.3,29.91,SSE,156,3.0,11.0,60,0.00,,,0.00,meteohub,2013-01-04 18:42:00,
2013-01-04 13:47:00,37.2,24.6,29.91,WSW,248,2.0,11.0,60,0.00,,,0.00,meteohub,2013-01-04 18:47:00,
2013-01-04 13:52:00,37.6,25.0,29.91,WSW,247,3.0,11.0,60,0.00,,,0.00,meteohub,2013-01-04 18:52:00,
2013-01-04 13:57:00,38.1,25.5,29.91,WSW,248,6.0,11.0,60,0.00,,,0.00,meteohub,2013-01-04 18:57:00,
2013-01-04 14:02:00,38.5,25.0,29.91,West,273,3.0,11.0,58,0.00,,,0.00,meteohub,2013-01-04 19:02:00,
2013-01-04 14:07:00,38.8,25.3,29.91,WSW,242,1.0,10.0,58,0.00,,,0.00,meteohub,2013-01-04 19:07:00,
2013-01-04 14:12:00,38.8,25.0,29.91,WSW,252,0.0,10.0,57,0.00,,,0.00,meteohub,2013-01-04 19:12:00,
2013-01-04 14:17:00,39.0,25.2,29.91,West,259,4.0,9.0,57,0.00,,,0.00,meteohub,2013-01-04 19:17:00,
2013-01-04 14:22:00,38.8,25.0,29.91,West,271,4.0,8.0,57,0.00,,,0.00,meteohub,2013-01-04 19:22:00,
2013-01-04 14:27:00,38.8,25.3,29.91,WNW,290,0.0,10.0,58,0.00,,,0.00,meteohub,2013-01-04 19:27:00,
2013-01-04 14:32:00,39.0,25.2,29.91,SW,231,8.0,10.0,57,0.00,,,0.00,meteohub,2013-01-04 19:32:00,
2013-01-04 14:37:00,39.2,25.2,29.91,SW,223,0.0,10.0,57,0.00,,,0.00,meteohub,2013-01-04 19:37:00,
2013-01-04 14:42:00,39.2,24.8,29.91,West,266,5.0,9.0,56,0.00,,,0.00,meteohub,2013-01-04 19:42:00,
2013-01-04 14:47:00,38.8,25.0,29.91,WSW,258,2.0,9.0,57,0.00,,,0.00,meteohub,2013-01-04 19:47:00,
2013-01-04 14:52:00,38.7,24.8,29.90,West,272,1.0,9.0,57,0.00,,,0.00,meteohub,2013-01-04 19:52:00,
2013-01-04 14:57:00,38.5,24.6,29.90,SW,227,5.0,11.0,57,0.00,,,0.00,meteohub,2013-01-04 19:57:00,
2013-01-04 15:02:00,38.3,23.9,29.90,WNW,299,4.0,11.0,56,0.00,,,0.00,meteohub,2013-01-04 20:02:00,
2013-01-04 15:07:00,37.9,24.1,29.91,WSW,244,2.0,11.0,57,0.00,,,0.00,meteohub,2013-01-04 20:07:00,
2013-01-04 15:12:00,37.9,24.4,29.91,WSW,257,1.0,13.0,58,0.00,,,0.00,meteohub,2013-01-04 20:12:00,
2013-01-04 15:17:00,37.8,24.3,29.91,West,264,3.0,13.0,58,0.00,,,0.00,meteohub,2013-01-04 20:17:00,
2013-01-04 15:22:00,37.8,24.3,29.91,West,273,3.0,11.0,58,0.00,,,0.00,meteohub,2013-01-04 20:22:00,
2013-01-04 15:27:00,37.8,24.3,29.91,WSW,245,1.0,8.0,58,0.00,,,0.00,meteohub,2013-01-04 20:27:00,
2013-01-04 15:32:00,37.8,24.3,29.91,West,273,4.0,8.0,58,0.00,,,0.00,meteohub,2013-01-04 20:32:00,
2013-01-04 15:37:00,37.8,24.3,29.91,West,262,2.0,7.0,58,0.00,,,0.00,meteohub,2013-01-04 20:37:00,
2013-01-04 15:42:00,37.6,24.1,29.91,WNW,302,2.0,11.0,58,0.00,,,0.00,meteohub,2013-01-04 20:42:00,
2013-01-04 15:47:00,37.4,23.9,29.91,West,267,3.0,11.0,58,0.00,,,0.00,meteohub,2013-01-04 20:47:00,
2013-01-04 15:52:00,37.2,23.7,29.90,SW,218,1.0,11.0,58,0.00,,,0.00,meteohub,2013-01-04 20:52:00,
2013-01-04 15:57:00,37.0,24.1,29.91,WSW,241,2.0,8.0,59,0.00,,,0.00,meteohub,2013-01-04 20:57:00,
2013-01-04 16:02:00,36.9,23.9,29.90,SW,228,2.0,6.0,59,0.00,,,0.00,meteohub,2013-01-04 21:02:00,
2013-01-04 16:07:00,36.9,23.9,29.90,West,265,0.0,13.0,59,0.00,,,0.00,meteohub,2013-01-04 21:07:00,
2013-01-04 16:12:00,36.7,23.7,29.91,West,265,2.0,13.0,59,0.00,,,0.00,meteohub,2013-01-04 21:12:00,
2013-01-04 16:17:00,36.7,23.7,29.90,SW,228,0.0,6.0,59,0.00,,,0.00,meteohub,2013-01-04 21:17:00,
2013-01-04 16:22:00,36.5,23.9,29.90,SW,228,0.0,4.0,60,0.00,,,0.00,meteohub,2013-01-04 21:22:00,
2013-01-04 16:27:00,36.3,23.7,29.90,SW,228,0.0,3.0,60,0.00,,,0.00,meteohub,2013-01-04 21:27:00,
2013-01-04 16:32:00,36.1,23.5,29.90,ESE,117,1.0,1.0,60,0.00,,,0.00,meteohub,2013-01-04 21:32:00,
2013-01-04 16:37:00,36.0,23.4,29.90,South,172,2.0,5.0,60,0.00,,,0.00,meteohub,2013-01-04 21:37:00,
2013-01-04 16:42:00,36.0,23.4,29.90,WSW,244,0.0,6.0,60,0.00,,,0.00,meteohub,2013-01-04 21:42:00,
2013-01-04 16:47:00,36.0,23.4,29.90,West,267,0.0,6.0,60,0.00,,,0.00,meteohub,2013-01-04 21:47:00,
2013-01-04 16:52:00,35.8,23.2,29.90,SW,235,4.0,6.0,60,0.00,,,0.00,meteohub,2013-01-04 21:52:00,
2013-01-04 16:57:00,35.6,23.5,29.90,WSW,245,0.0,5.0,61,0.00,,,0.00,meteohub,2013-01-04 21:57:00,
2013-01-04 17:02:00,35.4,23.4,29.90,SW,236,0.0,5.0,61,0.00,,,0.00,meteohub,2013-01-04 22:02:00,
2013-01-04 17:07:00,35.4,23.0,29.90,WSW,256,0.0,5.0,60,0.00,,,0.00,meteohub,2013-01-04 22:07:00,
2013-01-04 17:12:00,35.2,23.2,29.90,WNW,286,1.0,4.0,61,0.00,,,0.00,meteohub,2013-01-04 22:12:00,
2013-01-04 17:17:00,35.2,23.2,29.90,SW,228,2.0,5.0,61,0.00,,,0.00,meteohub,2013-01-04 22:17:00,
2013-01-04 17:22:00,35.1,23.0,29.91,WSW,245,4.0,5.0,61,0.00,,,0.00,meteohub,2013-01-04 22:22:00,
2013-01-04 17:27:00,35.1,23.0,29.91,SW,236,5.0,7.0,61,0.00,,,0.00,meteohub,2013-01-04 22:27:00,
2013-01-04 17:32:00,35.1,23.0,29.91,SW,234,1.0,7.0,61,0.00,,,0.00,meteohub,2013-01-04 22:32:00,
2013-01-04 17:37:00,34.9,22.8,29.91,SW,229,3.0,7.0,61,0.00,,,0.00,meteohub,2013-01-04 22:37:00,
2013-01-04 17:42:00,34.5,22.5,29.91,West,279,4.0,8.0,61,0.00,,,0.00,meteohub,2013-01-04 22:42:00,
2013-01-04 17:47:00,34.5,22.8,29.91,SSW,213,3.0,8.0,62,0.00,,,0.00,meteohub,2013-01-04 22:47:00,
2013-01-04 17:52:00,34.3,22.6,29.91,West,259,0.0,6.0,62,0.00,,,0.00,meteohub,2013-01-04 22:52:00,
2013-01-04 17:57:00,34.3,22.6,29.91,SSW,209,1.0,6.0,62,0.00,,,0.00,meteohub,2013-01-04 22:57:00,
2013-01-04 18:02:00,34.2,22.5,29.91,West,279,1.0,5.0,62,0.00,,,0.00,meteohub,2013-01-04 23:02:00,
2013-01-04 18:07:00,34.2,22.5,29.91,WSW,247,1.0,11.0,62,0.00,,,0.00,meteohub,2013-01-04 23:07:00,
2013-01-04 18:12:00,34.0,22.6,29.91,WSW,248,3.0,11.0,63,0.00,,,0.00,meteohub,2013-01-04 23:12:00,
2013-01-04 18:17:00,33.6,22.5,29.91,SW,234,0.0,11.0,63,0.00,,,0.00,meteohub,2013-01-04 23:17:00,
2013-01-04 18:22:00,33.4,22.3,29.91,West,259,2.0,4.0,63,0.00,,,0.00,meteohub,2013-01-04 23:22:00,
2013-01-04 18:27:00,33.4,22.6,29.91,SW,224,3.0,4.0,64,0.00,,,0.00,meteohub,2013-01-04 23:27:00,
2013-01-04 18:32:00,33.3,22.5,29.91,SW,233,0.0,4.0,64,0.00,,,0.00,meteohub,2013-01-04 23:32:00,
2013-01-04 18:37:00,33.1,22.3,29.92,SW,233,0.0,4.0,64,0.00,,,0.00,meteohub,2013-01-04 23:37:00,
2013-01-04 18:42:00,32.9,22.1,29.92,WSW,240,1.0,3.0,64,0.00,,,0.00,meteohub,2013-01-04 23:42:00,
2013-01-04 18:47:00,32.7,22.3,29.92,SW,226,0.0,3.0,65,0.00,,,0.00,meteohub,2013-01-04 23:47:00,
2013-01-04 18:52:00,32.5,22.1,29.92,SW,226,1.0,3.0,65,0.00,,,0.00,meteohub,2013-01-04 23:52:00,
2013-01-04 18:57:00,32.5,22.1,29.92,SSW,209,0.0,3.0,65,0.00,,,0.00,meteohub,2013-01-04 23:57:00,
2013-01-04 19:02:00,32.5,22.1,29.93,SW,224,0.0,4.0,65,0.00,,,0.00,meteohub,2013-01-05 00:02:00,
2013-01-04 19:07:00,32.4,21.9,29.92,SW,224,1.0,4.0,65,0.00,,,0.00,meteohub,2013-01-05 00:07:00,
2013-01-04 19:12:00,32.2,21.7,29.93,SW,235,0.0,4.0,65,0.00,,,0.00,meteohub,2013-01-05 00:12:00,
2013-01-04 19:17:00,32.2,21.7,29.93,SSW,202,4.0,4.0,65,0.00,,,0.00,meteohub,2013-01-05 00:17:00,
2013-01-04 19:22:00,32.4,21.9,29.93,WSW,244,2.0,5.0,65,0.00,,,0.00,meteohub,2013-01-05 00:22:00,
2013-01-04 19:27:00,32.4,21.9,29.93,WSW,240,3.0,5.0,65,0.00,,,0.00,meteohub,2013-01-05 00:27:00,
2013-01-04 19:32:00,32.5,22.1,29.93,SW,236,2.0,5.0,65,0.00,,,0.00,meteohub,2013-01-05 00:32:00,
2013-01-04 19:37:00,32.5,21.7,29.93,WSW,242,2.0,5.0,64,0.00,,,0.00,meteohub,2013-01-05 00:37:00,
2013-01-04 19:42:00,32.5,21.7,29.93,WSW,258,0.0,6.0,64,0.00,,,0.00,meteohub,2013-01-05 00:42:00,
2013-01-04 19:47:00,32.7,22.3,29.93,West,271,0.0,6.0,65,0.00,,,0.00,meteohub,2013-01-05 00:47:00,
2013-01-04 19:52:00,32.7,21.9,29.93,West,279,1.0,6.0,64,0.00,,,0.00,meteohub,2013-01-05 00:52:00,
2013-01-04 19:57:00,32.7,21.9,29.93,West,281,2.0,6.0,64,0.00,,,0.00,meteohub,2013-01-05 00:57:00,
2013-01-04 20:02:00,32.5,21.7,29.93,WSW,250,3.0,6.0,64,0.00,,,0.00,meteohub,2013-01-05 01:02:00,
2013-01-04 20:07:00,32.7,21.9,29.93,West,260,1.0,6.0,64,0.00,,,0.00,meteohub,2013-01-05 01:07:00,
2013-01-04 20:12:00,32.7,21.9,29.93,WSW,249,4.0,5.0,64,0.00,,,0.00,meteohub,2013-01-05 01:12:00,
2013-01-04 20:17:00,32.7,21.9,29.93,WSW,254,1.0,5.0,64,0.00,,,0.00,meteohub,2013-01-05 01:17:00,
2013-01-04 20:22:00,32.9,22.1,29.93,West,275,1.0,6.0,64,0.00,,,0.00,meteohub,2013-01-05 01:22:00,
2013-01-04 20:27:00,32.9,22.1,29.93,WSW,245,5.0,6.0,64,0.00,,,0.00,meteohub,2013-01-05 01:27:00,
2013-01-04 20:32:00,32.9,22.1,29.93,West,269,2.0,6.0,64,0.00,,,0.00,meteohub,2013-01-05 01:32:00,
2013-01-04 20:37:00,32.7,21.9,29.92,West,277,3.0,6.0,64,0.00,,,0.00,meteohub,2013-01-05 01:37:00,
2013-01-04 20:42:00,32.5,21.4,29.92,West,276,2.0,6.0,63,0.00,,,0.00,meteohub,2013-01-05 01:42:00,
2013-01-04 20:47:00,32.5,21.4,29.92,WNW,282,2.0,5.0,63,0.00,,,0.00,meteohub,2013-01-05 01:47:00,
2013-01-04 20:52:00,32.5,21.4,29.92,WSW,248,2.0,5.0,63,0.00,,,0.00,meteohub,2013-01-05 01:52:00,
2013-01-04 20:57:00,32.5,21.4,29.92,West,273,1.0,5.0,63,0.00,,,0.00,meteohub,2013-01-05 01:57:00,
2013-01-04 21:02:00,32.5,21.4,29.92,West,265,2.0,8.0,63,0.00,,,0.00,meteohub,2013-01-05 02:02:00,
2013-01-04 21:07:00,32.5,21.4,29.92,WSW,254,1.0,8.0,63,0.00,,,0.00,meteohub,2013-01-05 02:07:00,
2013-01-04 21:13:00,32.5,21.4,29.92,WSW,251,0.0,8.0,63,0.00,,,0.00,meteohub,2013-01-05 02:13:00,
2013-01-04 21:18:00,32.4,21.2,29.92,WNW,283,0.0,8.0,63,0.00,,,0.00,meteohub,2013-01-05 02:18:00,
2013-01-04 21:23:00,32.2,21.4,29.92,WSW,238,2.0,8.0,64,0.00,,,0.00,meteohub,2013-01-05 02:23:00,
2013-01-04 21:28:00,32.2,21.4,29.92,WSW,252,0.0,8.0,64,0.00,,,0.00,meteohub,2013-01-05 02:28:00,
2013-01-04 21:33:00,31.8,21.0,29.93,WSW,246,0.0,4.0,64,0.00,,,0.00,meteohub,2013-01-05 02:33:00,
2013-01-04 21:38:00,31.8,21.0,29.93,WSW,253,0.0,4.0,64,0.00,,,0.00,meteohub,2013-01-05 02:38:00,
2013-01-04 21:43:00,31.6,20.8,29.93,WSW,253,1.0,8.0,64,0.00,,,0.00,meteohub,2013-01-05 02:43:00,
2013-01-04 21:48:00,31.5,21.0,29.93,SW,235,0.0,8.0,65,0.00,,,0.00,meteohub,2013-01-05 02:48:00,
2013-01-04 21:53:00,31.3,20.8,29.93,SW,235,0.0,4.0,65,0.00,,,0.00,meteohub,2013-01-05 02:53:00,
2013-01-04 21:58:00,30.7,20.7,29.93,SW,235,0.0,3.0,66,0.00,,,0.00,meteohub,2013-01-05 02:58:00,
2013-01-04 22:03:00,30.6,20.5,29.94,SW,235,0.0,2.0,66,0.00,,,0.00,meteohub,2013-01-05 03:03:00,
2013-01-04 22:08:00,30.4,20.3,29.94,SW,235,0.0,2.0,66,0.00,,,0.00,meteohub,2013-01-05 03:08:00,
2013-01-04 22:13:00,30.0,20.5,29.94,SW,235,0.0,2.0,67,0.00,,,0.00,meteohub,2013-01-05 03:13:00,
2013-01-04 22:18:00,30.0,20.5,29.94,SW,235,0.0,2.0,67,0.00,,,0.00,meteohub,2013-01-05 03:18:00,
2013-01-04 22:23:00,30.0,20.5,29.94,SW,235,0.0,2.0,67,0.00,,,0.00,meteohub,2013-01-05 03:23:00,
2013-01-04 22:28:00,29.8,20.3,29.94,SW,235,0.0,2.0,67,0.00,,,0.00,meteohub,2013-01-05 03:28:00,
2013-01-04 22:33:00,29.7,20.5,29.94,SW,235,0.0,2.0,68,0.00,,,0.00,meteohub,2013-01-05 03:33:00,
2013-01-04 22:38:00,29.3,20.5,29.94,SW,235,0.0,1.0,69,0.00,,,0.00,meteohub,2013-01-05 03:38:00,
2013-01-04 22:43:00,29.1,20.3,29.94,SW,235,0.0,1.0,69,0.00,,,0.00,meteohub,2013-01-05 03:43:00,
2013-01-04 22:48:00,29.3,20.1,29.94,SSW,192,1.0,2.0,68,0.00,,,0.00,meteohub,2013-01-05 03:48:00,
2013-01-04 22:53:00,29.5,20.3,29.94,SW,236,0.0,3.0,68,0.00,,,0.00,meteohub,2013-01-05 03:53:00,
2013-01-04 22:58:00,29.3,20.5,29.94,SW,236,0.0,3.0,69,0.00,,,0.00,meteohub,2013-01-05 03:58:00,
2013-01-04 23:03:00,29.3,20.5,29.95,SW,220,1.0,3.0,69,0.00,,,0.00,meteohub,2013-01-05 04:03:00,
2013-01-04 23:08:00,29.3,20.5,29.95,SW,220,0.0,3.0,69,0.00,,,0.00,meteohub,2013-01-05 04:08:00,
2013-01-04 23:13:00,29.3,20.1,29.95,SW,220,0.0,2.0,68,0.00,,,0.00,meteohub,2013-01-05 04:13:00,
2013-01-04 23:18:00,29.3,20.1,29.95,SSW,203,0.0,2.0,68,0.00,,,0.00,meteohub,2013-01-05 04:18:00,
2013-01-04 23:23:00,29.3,20.1,29.95,SSW,203,0.0,2.0,68,0.00,,,0.00,meteohub,2013-01-05 04:23:00,
2013-01-04 23:28:00,29.3,20.1,29.95,SSW,203,1.0,2.0,68,0.00,,,0.00,meteohub,2013-01-05 04:28:00,
2013-01-04 23:33:00,29.5,20.3,29.95,SSW,203,0.0,2.0,68,0.00,,,0.00,meteohub,2013-01-05 04:33:00,
2013-01-04 23:38:00,29.5,20.3,29.95,SSW,203,0.0,2.0,68,0.00,,,0.00,meteohub,2013-01-05 04:38:00,
2013-01-04 23:43:00,29.3,20.1,29.95,SSW,203,0.0,2.0,68,0.00,,,0.00,meteohub,2013-01-05 04:43:00,
2013-01-04 23:48:00,29.3,20.1,29.95,SSW,203,0.0,2.0,68,0.00,,,0.00,meteohub,2013-01-05 04:48:00,
2013-01-04 23:54:00,29.1,19.9,29.95,SSW,201,1.0,2.0,68,0.00,,,0.00,meteohub,2013-01-05 04:54:00,
2013-01-04 23:59:00,28.9,19.8,29.95,SSW,201,0.0,2.0,68,0.00,,,0.00,meteohub,2013-01-05 04:59:00,